Time;durP1;ratioP1;P1;durP2;ratioP2;P2;SDS_P1;SDS_P2;PMS_P1;PMS_P2;Temp;Humidity;BMP_temperature;BMP_pressure;BME280_temperature;BME280_humidity;BME280_pressure;Samples;Min_cycle;Max_cycle;Signal;HPM_P1;HPM_P2
2022/02/06 00:00:20;;;;;;;3.03;1.20;;;;;;;0.90;75.10;99194.65;1797594;78;22483;-51
2022/02/06 00:02:49;;;;;;;4.87;0.90;;;;;;;0.90;75.07;99195.98;1796184;78;21038;-52
2022/02/06 00:05:16;;;;;;;2.80;0.90;;;;;;;0.93;75.04;99200.36;1797591;78;21262;-52
2022/02/06 00:07:44;;;;;;;4.50;0.90;;;;;;;0.94;75.01;99198.97;1799040;78;21003;-52
2022/02/06 00:10:10;;;;;;;2.80;0.90;;;;;;;0.96;74.95;99206.91;1794613;78;21088;-52
2022/02/06 00:12:37;;;;;;;4.13;1.10;;;;;;;0.96;74.95;99213.08;1799098;78;21076;-52
2022/02/06 00:15:05;;;;;;;4.80;0.90;;;;;;;0.96;74.94;99205.58;1796925;78;21120;-51
2022/02/06 00:17:32;;;;;;;3.10;0.90;;;;;;;0.96;74.91;99208.23;1802649;78;21103;-52
2022/02/06 00:19:58;;;;;;;3.60;0.80;;;;;;;0.95;74.92;99207.80;1796749;78;21049;-52
2022/02/06 00:22:34;;;;;;;4.20;0.90;;;;;;;0.95;74.96;99206.03;1800343;78;21034;-52
2022/02/06 00:25:24;;;;;;;3.10;1.17;;;;;;;0.96;74.92;99206.45;1795565;77;21043;-52
2022/02/06 00:27:33;;;;;;;3.93;0.97;;;;;;;0.95;74.91;99202.50;1788115;78;21554;-52
2022/02/06 00:29:58;;;;;;;5.00;1.13;;;;;;;0.96;74.93;99202.48;1797889;78;21056;-51
2022/02/06 00:33:10;;;;;;;5.73;1.00;;;;;;;0.96;74.88;99202.48;1793482;78;21471;-53
2022/02/06 00:35:14;;;;;;;3.27;1.03;;;;;;;0.97;74.90;99203.36;1769836;78;20965;-52
2022/02/06 00:39:58;;;;;;;5.77;0.90;;;;;;;0.98;74.91;99190.53;1728335;78;21369;-52
2022/02/06 00:42:25;;;;;;;3.70;1.00;;;;;;;0.98;74.86;99196.70;1797230;78;22631;-53
2022/02/06 00:44:52;;;;;;;4.17;1.27;;;;;;;0.97;74.84;99194.08;1797506;78;21026;-53
2022/02/06 00:47:18;;;;;;;3.93;1.20;;;;;;;0.97;74.83;99190.98;1799193;78;21464;-52
2022/02/06 00:49:46;;;;;;;6.10;1.20;;;;;;;0.98;74.79;99183.91;1801215;78;21485;-53
2022/02/06 00:52:20;;;;;;;1.80;0.83;;;;;;;0.96;74.76;99187.91;1801532;78;21945;-52
2022/02/06 00:54:40;;;;;;;5.63;1.20;;;;;;;0.95;74.78;99196.75;1798060;78;21538;-53
2022/02/06 00:57:07;;;;;;;3.13;0.97;;;;;;;0.94;74.76;99195.00;1792139;78;21697;-52
2022/02/06 00:59:33;;;;;;;5.50;1.33;;;;;;;0.93;74.79;99189.75;1796414;78;21545;-52
2022/02/06 01:02:00;;;;;;;2.33;1.10;;;;;;;0.92;74.81;99187.55;1798119;78;21069;-53
2022/02/06 01:04:28;;;;;;;4.27;0.90;;;;;;;0.93;74.83;99186.66;1794135;78;21108;-51
2022/02/06 01:06:54;;;;;;;4.90;1.10;;;;;;;0.94;74.84;99184.84;1801085;78;21447;-55
2022/02/06 01:09:20;;;;;;;2.13;1.00;;;;;;;0.94;74.82;99188.83;1795008;78;21058;-52
2022/02/06 01:11:49;;;;;;;1.70;0.70;;;;;;;0.95;74.87;99191.90;1798851;78;21049;-52
2022/02/06 01:14:28;;;;;;;2.40;0.90;;;;;;;0.92;74.89;99179.61;1797696;78;21333;-52
2022/02/06 01:17:25;;;;;;;1.50;0.87;;;;;;;0.92;74.93;99185.35;1792399;78;21041;-51
2022/02/06 01:19:23;;;;;;;4.05;0.90;;;;;;;0.90;74.96;99173.90;1782314;78;21208;-51
2022/02/06 01:21:52;;;;;;;3.27;0.90;;;;;;;0.90;75.01;99188.47;1798274;78;21662;-51
2022/02/06 01:24:22;;;;;;;2.80;1.00;;;;;;;0.90;75.05;99185.83;1794003;78;21422;-51
2022/02/06 01:26:57;;;;;;;2.20;0.90;;;;;;;0.89;75.08;99182.30;1793221;78;21626;-52
2022/02/06 01:34:16;;;;;;;4.00;0.83;;;;;;;0.86;75.11;99186.31;1795238;78;21077;-52
2022/02/06 01:36:46;;;;;;;3.63;1.00;;;;;;;0.85;75.13;99189.86;1802816;78;21471;-51
2022/02/06 01:39:34;;;;;;;5.93;1.13;;;;;;;0.83;75.21;99182.42;1801425;78;21129;-49
2022/02/06 01:41:47;;;;;;;4.27;1.10;;;;;;;0.80;75.24;99179.81;1803247;78;21810;-51
2022/02/06 01:44:36;;;;;;;4.17;0.80;;;;;;;0.79;75.32;99188.66;1805548;78;21833;-51
2022/02/06 02:10:41;;;;;;;2.33;0.90;;;;;;;0.66;76.17;99182.72;1802279;77;21113;-51
2022/02/06 02:20:53;;;;;;;3.73;1.00;;;;;;;0.66;76.58;99191.99;1805023;78;20909;-51
2022/02/06 02:23:36;;;;;;;2.63;1.00;;;;;;;0.66;76.67;99195.97;1801918;78;21105;-51
2022/02/06 02:26:04;;;;;;;2.83;0.90;;;;;;;0.68;76.78;99191.97;1797546;78;21417;-50
2022/02/06 02:42:58;;;;;;;;;;;;;;;0.75;77.05;99213.03;1807671;78;20898;-50
2022/02/06 02:46:37;;;;;;;3.20;1.13;;;;;;;0.77;77.31;99220.92;1802523;77;20902;-52
2022/02/06 02:48:56;;;;;;;4.67;1.57;;;;;;;0.77;77.38;99220.08;1804822;78;21134;-51
2022/02/06 02:51:26;;;;;;;2.73;1.10;;;;;;;0.79;77.40;99217.80;1804846;78;21413;-52
2022/02/06 02:53:57;;;;;;;4.13;1.17;;;;;;;0.79;77.42;99215.16;1807266;78;22175;-51
2022/02/06 02:56:34;;;;;;;2.37;1.10;;;;;;;0.81;77.40;99220.43;1797507;78;21044;-50
2022/02/06 03:01:41;;;;;;;2.63;1.10;;;;;;;0.84;77.39;99220.39;1802202;78;21470;-52
2022/02/06 03:03:54;;;;;;;6.20;1.20;;;;;;;0.85;77.42;99216.84;1792367;78;21127;-51
2022/02/06 03:06:21;;;;;;;2.57;0.90;;;;;;;0.85;77.39;99219.01;1800521;78;21365;-50
2022/02/06 03:08:50;;;;;;;3.50;1.17;;;;;;;0.86;77.37;99207.96;1801157;78;21112;-51
2022/02/06 03:11:16;;;;;;;2.97;1.10;;;;;;;0.87;77.36;99208.39;1804572;78;21120;-51
2022/02/06 03:16:33;;;;;;;4.83;1.15;;;;;;;0.88;77.40;99210.14;1801154;78;21378;-51
2022/02/06 03:19:03;;;;;;;3.33;1.47;;;;;;;0.89;77.33;99219.39;1800525;78;21072;-50
2022/02/06 03:21:28;;;;;;;3.60;1.30;;;;;;;0.86;77.29;99219.44;1804340;78;21369;-52
2022/02/06 03:23:56;;;;;;;3.20;1.43;;;;;;;0.86;77.27;99221.21;1798665;78;21053;-51
2022/02/06 03:26:24;;;;;;;4.60;1.50;;;;;;;0.83;77.30;99219.52;1799603;78;21774;-51
2022/02/06 03:28:50;;;;;;;2.67;1.50;;;;;;;0.82;77.39;99213.79;1800125;78;21042;-51
2022/02/06 03:31:17;;;;;;;3.63;1.10;;;;;;;0.81;77.37;99212.48;1805757;78;20858;-50
2022/02/06 03:33:46;;;;;;;4.87;1.43;;;;;;;0.80;77.37;99210.28;1801291;78;20993;-51
2022/02/06 03:36:12;;;;;;;3.07;1.40;;;;;;;0.78;77.40;99217.83;1794953;78;21120;-51
2022/02/06 03:38:39;;;;;;;4.13;1.33;;;;;;;0.77;77.48;99209.48;1795102;78;21118;-51
2022/02/06 03:41:09;;;;;;;2.70;1.30;;;;;;;0.77;77.50;99210.81;1791172;78;21061;-51
2022/02/06 03:43:57;;;;;;;4.13;1.23;;;;;;;0.75;77.57;99209.05;1795781;78;21084;-49
2022/02/06 03:46:30;;;;;;;3.53;1.33;;;;;;;0.76;77.63;99204.63;1793050;78;21358;-50
2022/02/06 03:49:05;;;;;;;4.17;1.07;;;;;;;0.77;77.73;99206.83;1794846;78;20903;-52
2022/02/06 03:51:37;;;;;;;4.57;1.00;;;;;;;0.77;77.80;99209.00;1794166;78;21120;-49
2022/02/06 03:54:03;;;;;;;2.80;1.13;;;;;;;0.78;77.84;99216.05;1797109;78;21593;-51
2022/02/06 03:56:31;;;;;;;3.97;1.13;;;;;;;0.80;77.93;99214.70;1801135;77;21463;-50
2022/02/06 03:58:58;;;;;;;4.00;1.10;;;;;;;0.81;77.98;99211.16;1798616;78;21128;-48
2022/02/06 04:01:24;;;;;;;2.40;1.10;;;;;;;0.82;77.98;99208.48;1796218;78;21072;-52
2022/02/06 04:03:51;;;;;;;4.17;1.00;;;;;;;0.86;78.01;99214.59;1795625;78;22352;-51
2022/02/06 04:06:17;;;;;;;4.80;1.00;;;;;;;0.86;78.02;99223.86;1794601;77;21033;-51
2022/02/06 04:08:44;;;;;;;4.17;0.80;;;;;;;0.87;78.01;99218.54;1794170;78;21078;-52
2022/02/06 04:11:19;;;;;;;2.83;1.10;;;;;;;0.89;78.02;99227.34;1794916;78;21072;-51
2022/02/06 04:16:36;;;;;;;5.37;1.00;;;;;;;0.95;78.02;99220.60;1795154;78;21117;-51
2022/02/06 04:18:53;;;;;;;3.07;1.10;;;;;;;0.97;77.99;99227.20;1791251;78;21494;-50
2022/02/06 04:21:18;;;;;;;4.03;1.00;;;;;;;0.98;77.93;99234.25;1794630;78;21080;-49
2022/02/06 04:23:44;;;;;;;4.17;1.30;;;;;;;0.99;77.89;99232.03;1798703;78;21052;-51
2022/02/06 04:26:10;;;;;;;2.73;1.17;;;;;;;0.99;77.88;99224.09;1798444;78;21033;-49
2022/02/06 04:28:37;;;;;;;5.40;1.30;;;;;;;0.97;77.81;99220.58;1798612;78;21072;-50
2022/02/06 04:31:04;;;;;;;4.20;1.43;;;;;;;0.95;77.85;99223.25;1794965;78;21113;-51
2022/02/06 04:33:30;;;;;;;3.60;1.20;;;;;;;0.95;77.88;99227.67;1792566;78;21093;-51
2022/02/06 04:35:59;;;;;;;2.90;1.27;;;;;;;0.95;77.87;99225.02;1795233;78;21092;-50
2022/02/06 04:38:42;;;;;;;5.90;1.43;;;;;;;0.95;77.91;99220.60;1723644;81;20986;-51
2022/02/06 04:41:09;;;;;;;4.40;1.43;;;;;;;0.96;77.89;99222.35;1759208;79;22276;-50
2022/02/06 04:43:54;;;;;;;1.87;1.20;;;;;;;0.98;77.86;99224.98;1753409;79;21518;-51
2022/02/06 04:46:31;;;;;;;2.70;1.07;;;;;;;0.99;77.84;99229.38;1748111;80;22268;-51
2022/02/06 05:13:13;;;;;;;;;;;;;;;1.00;77.82;99232.02;1755318;80;21058;-52
2022/02/06 05:25:49;;;;;;;6.08;1.85;;;;;;;0.97;77.84;99251.05;1753664;78;20966;-51
2022/02/06 05:28:25;;;;;;;5.40;1.50;;;;;;;0.97;77.88;99253.70;1794950;78;20906;-50
2022/02/06 05:30:49;;;;;;;4.77;1.40;;;;;;;0.99;77.89;99255.89;1797605;78;21002;-52
2022/02/06 05:33:08;;;;;;;3.10;1.20;;;;;;;1.00;77.90;99254.98;1761126;79;22044;-51
2022/02/06 05:35:36;;;;;;;8.33;1.80;;;;;;;1.00;77.90;99262.48;1760877;79;21538;-50
2022/02/06 05:38:02;;;;;;;5.87;1.57;;;;;;;1.02;77.85;99267.77;1766238;79;20882;-51
2022/02/06 05:40:29;;;;;;;3.40;1.57;;;;;;;1.03;77.86;99266.39;1735909;80;21026;-50
2022/02/06 05:42:57;;;;;;;4.63;1.40;;;;;;;1.04;77.82;99276.55;1758529;80;20942;-51
2022/02/06 05:45:23;;;;;;;4.50;2.03;;;;;;;1.04;77.81;99270.80;1761693;80;21103;-49
2022/02/06 05:47:51;;;;;;;4.10;1.60;;;;;;;1.04;77.79;99273.89;1774848;79;20947;-51
2022/02/06 05:50:18;;;;;;;3.93;1.40;;;;;;;1.04;77.79;99274.77;1755589;80;20926;-51
2022/02/06 05:52:45;;;;;;;3.53;1.57;;;;;;;1.04;77.78;99285.37;1754783;80;20969;-51
2022/02/06 05:55:12;;;;;;;2.20;1.10;;;;;;;1.08;77.77;99287.53;1756974;80;20973;-51
2022/02/06 05:57:38;;;;;;;4.13;1.63;;;;;;;1.09;77.76;99286.63;1752337;80;21087;-50
2022/02/06 06:00:06;;;;;;;3.70;0.90;;;;;;;1.10;77.77;99287.94;1737831;80;21033;-52
2022/02/06 06:02:34;;;;;;;3.07;1.30;;;;;;;1.12;77.76;99285.23;1754782;80;20879;-50
2022/02/06 06:05:01;;;;;;;5.87;1.90;;;;;;;1.12;77.71;99284.78;1756748;80;20917;-51
2022/02/06 06:07:27;;;;;;;3.30;1.43;;;;;;;1.15;77.67;99287.84;1755157;80;21242;-52
2022/02/06 06:09:54;;;;;;;2.60;1.67;;;;;;;1.16;77.62;99284.73;1759905;80;22216;-50
2022/02/06 06:12:20;;;;;;;4.43;2.33;;;;;;;1.15;77.60;99266.63;1756109;80;21478;-51
2022/02/06 06:14:47;;;;;;;3.77;1.70;;;;;;;1.17;77.58;99274.12;1755848;80;21054;-52
2022/02/06 06:17:15;;;;;;;14.93;1.90;;;;;;;1.17;77.55;99272.79;1751757;80;21471;-50
2022/02/06 06:19:45;;;;;;;4.80;1.63;;;;;;;1.20;77.49;99278.46;1753170;80;21334;-51
2022/02/06 06:22:12;;;;;;;5.47;1.73;;;;;;;1.22;77.47;99274.02;1753047;80;21550;-50
2022/02/06 06:24:45;;;;;;;4.87;2.00;;;;;;;1.24;77.44;99270.89;1751330;80;21268;-50
2022/02/06 06:27:07;;;;;;;2.47;1.50;;;;;;;1.27;77.38;99267.75;1754815;80;21074;-50
2022/02/06 06:29:34;;;;;;;7.13;2.00;;;;;;;1.30;77.28;99264.14;1756122;80;21072;-50
2022/02/06 06:32:03;;;;;;;8.80;2.30;;;;;;;1.30;77.19;99261.05;1801403;78;21346;-51
2022/02/06 06:34:30;;;;;;;2.90;1.60;;;;;;;1.31;77.08;99268.09;1805154;78;21068;-51
2022/02/06 06:36:56;;;;;;;2.33;1.67;;;;;;;1.30;77.03;99270.77;1800706;78;21487;-51
2022/02/06 06:39:35;;;;;;;4.43;1.87;;;;;;;1.31;77.00;99272.07;1804630;78;21082;-51
2022/02/06 06:41:51;;;;;;;4.33;1.40;;;;;;;1.31;76.95;99276.05;1799628;78;21048;-51
2022/02/06 06:44:17;;;;;;;5.47;2.47;;;;;;;1.33;76.93;99273.38;1803062;78;21098;-53
2022/02/06 06:46:43;;;;;;;6.00;1.80;;;;;;;1.35;76.84;99280.41;1800306;77;21134;-50
2022/02/06 06:49:09;;;;;;;5.27;1.70;;;;;;;1.36;76.80;99283.45;1805653;78;21020;-51
2022/02/06 06:51:36;;;;;;;5.57;1.67;;;;;;;1.38;76.70;99289.61;1806054;78;21021;-52
2022/02/06 06:54:07;;;;;;;4.00;1.60;;;;;;;1.39;76.61;99288.72;1802758;78;21080;-49
2022/02/06 06:56:42;;;;;;;3.40;1.50;;;;;;;1.41;76.56;99287.36;1801077;78;21048;-51
2022/02/06 06:58:59;;;;;;;2.33;1.20;;;;;;;1.44;76.49;99286.87;1795399;78;21598;-52
2022/02/06 07:01:50;;;;;;;2.43;1.10;;;;;;;1.47;76.41;99289.89;1765710;79;21459;-50
2022/02/06 07:04:12;;;;;;;5.10;1.83;;;;;;;1.48;76.36;99287.67;1744684;81;21485;-50
2022/02/06 07:06:38;;;;;;;3.67;1.30;;;;;;;1.51;76.24;99281.86;1742740;81;21132;-49
2022/02/06 07:09:04;;;;;;;3.03;1.57;;;;;;;1.51;76.12;99284.97;1744592;81;21467;-52
2022/02/06 07:11:33;;;;;;;4.27;1.10;;;;;;;1.51;76.02;99280.54;1740797;81;21192;-51
2022/02/06 07:14:00;;;;;;;4.23;1.17;;;;;;;1.55;76.01;99279.13;1746609;80;21108;-52
2022/02/06 07:16:27;;;;;;;4.20;1.10;;;;;;;1.58;75.91;99281.28;1744176;81;21072;-52
2022/02/06 07:18:54;;;;;;;3.10;1.13;;;;;;;1.62;75.79;99282.08;1743582;81;20973;-50
2022/02/06 07:21:21;;;;;;;4.03;1.40;;;;;;;1.65;75.71;99272.75;1746419;81;20966;-50
2022/02/06 07:23:48;;;;;;;6.27;1.20;;;;;;;1.68;75.60;99275.34;1746949;81;21107;-51
2022/02/06 07:26:19;;;;;;;3.27;1.43;;;;;;;1.70;75.46;99272.22;1742285;81;21140;-51
2022/02/06 07:28:49;;;;;;;1.97;1.10;;;;;;;1.74;75.35;99280.52;1744796;81;21100;-51
2022/02/06 07:31:11;;;;;;;3.27;1.10;;;;;;;1.75;75.22;99276.52;1745198;81;21053;-49
2022/02/06 07:33:37;;;;;;;5.07;1.40;;;;;;;1.79;75.08;99286.14;1743374;81;21014;-52
2022/02/06 07:36:04;;;;;;;6.03;1.77;;;;;;;1.81;74.95;99272.86;1743292;81;21781;-50
2022/02/06 07:38:31;;;;;;;2.30;1.53;;;;;;;1.82;74.73;99277.26;1750119;81;21934;-50
2022/02/06 07:40:57;;;;;;;6.33;1.33;;;;;;;1.81;74.66;99278.16;1753343;80;20889;-51
2022/02/06 07:43:23;;;;;;;4.23;1.30;;;;;;;1.82;74.64;99274.16;1742798;81;20954;-51
2022/02/06 07:45:51;;;;;;;2.93;1.20;;;;;;;1.84;74.54;99279.44;1741695;81;20891;-52
2022/02/06 07:48:19;;;;;;;2.30;1.20;;;;;;;1.87;74.37;99280.71;1740178;81;21080;-50
2022/02/06 07:50:45;;;;;;;2.47;1.20;;;;;;;1.90;74.26;99280.62;1745721;80;21051;-52
2022/02/06 07:53:12;;;;;;;3.40;1.43;;;;;;;1.92;74.13;99276.63;1726035;81;21145;-51
2022/02/06 07:55:38;;;;;;;2.53;0.90;;;;;;;1.96;74.06;99279.64;1725064;81;21128;-52
2022/02/06 07:58:04;;;;;;;3.83;1.37;;;;;;;1.99;73.84;99277.78;1723944;82;21333;-50
2022/02/06 08:00:31;;;;;;;3.40;1.00;;;;;;;2.02;73.66;99279.05;1728389;82;21885;-49
2022/02/06 08:02:57;;;;;;;2.90;1.00;;;;;;;2.03;73.51;99282.13;1728566;82;20966;-50
2022/02/06 08:05:25;;;;;;;7.63;1.10;;;;;;;2.05;73.39;99278.97;1726212;82;20986;-50
2022/02/06 08:07:53;;;;;;;4.47;0.90;;;;;;;2.08;73.21;99282.90;1723511;81;21105;-51
2022/02/06 08:10:20;;;;;;;4.20;1.07;;;;;;;2.10;73.05;99285.07;1724807;81;21065;-51
2022/02/06 08:12:55;;;;;;;1.97;0.93;;;;;;;2.13;72.94;99282.33;1724591;81;21277;-50
2022/02/06 08:15:17;;;;;;;2.40;0.80;;;;;;;2.17;72.82;99281.82;1725822;82;21042;-51
2022/02/06 08:17:43;;;;;;;3.70;0.83;;;;;;;2.20;72.61;99280.44;1726867;82;21132;-50
2022/02/06 08:20:12;;;;;;;3.00;0.90;;;;;;;2.22;72.54;99278.15;1750877;80;21451;-52
2022/02/06 08:22:38;;;;;;;5.07;0.93;;;;;;;2.26;72.32;99281.17;1720291;81;20976;-50
2022/02/06 08:25:06;;;;;;;3.90;0.93;;;;;;;2.28;72.10;99276.70;1713303;81;21827;-51
2022/02/06 08:27:33;;;;;;;3.77;1.07;;;;;;;2.31;71.90;99282.38;1710265;81;21525;-51
2022/02/06 08:30:00;;;;;;;4.00;0.90;;;;;;;2.33;71.78;99277.91;1723589;81;21049;-51
2022/02/06 08:32:27;;;;;;;2.03;0.90;;;;;;;2.35;71.48;99281.42;1751909;80;21037;-52
2022/02/06 08:34:54;;;;;;;3.53;0.90;;;;;;;2.38;71.33;99280.48;1729919;82;21022;-52
2022/02/06 08:37:20;;;;;;;4.07;1.10;;;;;;;2.41;71.21;99276.41;1799267;78;21091;-51
2022/02/06 08:39:47;;;;;;;3.97;1.00;;;;;;;2.42;71.05;99281.69;1741603;81;21049;-52
2022/02/06 08:42:13;;;;;;;5.23;0.90;;;;;;;2.43;70.85;99279.45;1744334;81;21116;-51
2022/02/06 08:44:42;;;;;;;3.83;1.00;;;;;;;2.44;70.66;99270.59;1744926;81;21380;-52
2022/02/06 08:47:10;;;;;;;3.30;1.20;;;;;;;2.45;70.39;99277.65;1715726;81;21072;-50
2022/02/06 08:49:37;;;;;;;2.80;0.87;;;;;;;2.46;70.29;99279.85;1753399;81;21111;-51
2022/02/06 08:52:05;;;;;;;1.73;0.90;;;;;;;2.47;69.97;99279.79;1748548;81;20910;-51
2022/02/06 08:54:34;;;;;;;4.70;0.90;;;;;;;2.45;69.96;99277.65;1746964;81;20911;-50
2022/02/06 08:57:12;;;;;;;3.20;0.93;;;;;;;2.49;69.83;99281.09;1752025;80;20955;-50
2022/02/06 08:59:31;;;;;;;2.47;0.80;;;;;;;2.53;69.61;99278.80;1738869;81;20878;-52
2022/02/06 09:01:59;;;;;;;1.67;0.73;;;;;;;2.57;69.30;99277.34;1740882;81;21769;-50
2022/02/06 09:04:26;;;;;;;1.87;0.83;;;;;;;2.60;69.21;99272.42;1746510;81;20985;-51
2022/02/06 09:06:57;;;;;;;2.50;0.90;;;;;;;2.64;69.26;99255.48;1745884;81;21034;-52
2022/02/06 09:09:21;;;;;;;5.27;1.97;;;;;;;2.69;69.11;99261.58;1746843;81;21054;-51
2022/02/06 09:11:48;;;;;;;2.77;1.00;;;;;;;2.76;69.07;99249.88;1747011;81;20946;-49
2022/02/06 09:14:17;;;;;;;1.33;0.83;;;;;;;2.79;68.67;99248.94;1747907;81;22366;-50
2022/02/06 09:16:42;;;;;;;2.80;0.70;;;;;;;2.83;68.41;99247.93;1746628;81;20920;-51
2022/02/06 09:19:12;;;;;;;5.00;0.67;;;;;;;2.86;68.05;99241.22;1744001;81;21026;-50
2022/02/06 09:21:39;;;;;;;2.20;0.77;;;;;;;2.87;67.53;99245.63;1714186;81;21002;-50
2022/02/06 09:24:06;;;;;;;2.37;0.80;;;;;;;2.85;67.40;99245.66;1748979;81;21065;-52
2022/02/06 09:26:35;;;;;;;4.73;0.83;;;;;;;2.87;67.40;99242.97;1744967;81;21163;-51
2022/02/06 09:29:01;;;;;;;1.47;0.80;;;;;;;2.90;67.37;99239.76;1744937;80;21370;-51
2022/02/06 09:31:27;;;;;;;4.30;0.93;;;;;;;2.95;67.34;99234.34;1764323;79;21605;-50
2022/02/06 09:36:20;;;;;;;1.80;0.80;;;;;;;3.03;66.64;99226.59;1765842;79;21051;-49
2022/02/06 09:38:47;;;;;;;1.87;0.70;;;;;;;3.07;66.43;99222.04;1769090;80;21135;-51
2022/02/06 09:41:13;;;;;;;2.20;0.70;;;;;;;3.08;66.05;99218.92;1744042;80;21042;-51
2022/02/06 09:43:40;;;;;;;2.53;0.70;;;;;;;3.09;65.89;99216.69;1744359;81;21097;-51
2022/02/06 09:46:06;;;;;;;4.00;0.67;;;;;;;3.13;65.84;99209.06;1747898;81;21615;-50
2022/02/06 09:48:32;;;;;;;2.60;0.67;;;;;;;3.16;65.79;99204.52;1767800;79;21473;-51
2022/02/06 09:50:59;;;;;;;3.20;0.73;;;;;;;3.19;65.46;99211.09;1768288;80;21161;-51
2022/02/06 09:53:29;;;;;;;3.20;0.80;;;;;;;3.21;65.31;99210.59;1767985;80;21021;-51
2022/02/06 09:56:07;;;;;;;3.50;0.90;;;;;;;3.24;65.24;99203.84;1766239;80;21201;-51
2022/02/06 10:01:07;;;;;;;2.80;0.63;;;;;;;3.30;64.68;99214.80;1743811;80;21277;-50
2022/02/06 10:03:48;;;;;;;2.23;0.70;;;;;;;3.34;64.42;99201.80;1744584;81;21813;-51
2022/02/06 10:06:24;;;;;;;3.67;0.60;;;;;;;3.34;64.23;99199.14;1745911;81;21510;-51
2022/02/06 10:08:55;;;;;;;3.83;0.67;;;;;;;3.35;64.34;99194.25;1745116;81;21065;-51
2022/02/06 10:11:23;;;;;;;2.97;0.73;;;;;;;3.42;64.13;99206.45;1802444;78;21075;-51
2022/02/06 10:13:49;;;;;;;2.37;0.70;;;;;;;3.43;63.72;99197.11;1805697;78;21052;-51
2022/02/06 10:16:17;;;;;;;4.37;0.93;;;;;;;3.46;63.72;99190.84;1805957;78;21191;-51
2022/02/06 10:18:45;;;;;;;4.63;1.07;;;;;;;3.50;63.76;99186.28;1803219;78;21377;-51
2022/02/06 10:21:16;;;;;;;1.60;0.60;;;;;;;3.55;63.35;99189.24;1802188;78;21100;-51
2022/02/06 10:26:52;;;;;;;3.63;1.07;;;;;;;3.51;62.63;99185.36;1765318;80;21322;-51
2022/02/06 10:31:48;;;;;;;3.12;0.70;;;;;;;3.55;62.62;99177.27;1774455;80;22069;-52
2022/02/06 10:34:28;;;;;;;2.70;0.60;;;;;;;3.63;62.54;99172.59;1764927;80;21339;-52
2022/02/06 10:37:19;;;;;;;4.43;0.80;;;;;;;3.72;62.55;99170.12;1745240;81;21660;-52
2022/02/06 10:39:57;;;;;;;4.73;0.80;;;;;;;3.78;62.34;99160.61;1740539;81;21085;-52
2022/02/06 10:42:26;;;;;;;2.60;0.70;;;;;;;3.85;62.03;99163.95;1737904;81;21080;-53
2022/02/06 10:45:25;;;;;;;4.67;0.80;;;;;;;3.85;61.87;99162.61;1740098;81;21140;-53
2022/02/06 10:47:53;;;;;;;5.10;1.20;;;;;;;3.87;61.74;99169.65;1738222;81;21464;-54
2022/02/06 10:50:25;;;;;;;4.10;0.80;;;;;;;3.94;61.80;99165.00;1745062;81;21081;-50
2022/02/06 10:52:51;;;;;;;3.57;0.70;;;;;;;4.03;61.82;99160.72;1741395;81;21100;-51
2022/02/06 10:55:19;;;;;;;2.17;0.70;;;;;;;4.10;61.52;99163.59;1719707;81;22976;-51
2022/02/06 10:58:00;;;;;;;4.43;0.70;;;;;;;4.15;61.48;99153.69;1742882;81;21435;-51
2022/02/06 11:00:31;;;;;;;2.40;1.17;;;;;;;4.21;61.37;99149.95;1741176;81;21084;-54
2022/02/06 11:03:04;;;;;;;4.77;0.70;;;;;;;4.22;61.38;99146.37;1745033;81;20942;-54
2022/02/06 11:05:36;;;;;;;2.37;0.70;;;;;;;4.24;61.14;99149.41;1742198;81;21049;-54
2022/02/06 11:08:03;;;;;;;3.37;0.80;;;;;;;4.24;61.00;99149.86;1740919;81;21113;-54
2022/02/06 11:10:32;;;;;;;4.33;0.70;;;;;;;4.20;61.11;99158.40;1745779;81;21052;-54
2022/02/06 11:13:02;;;;;;;2.80;0.80;;;;;;;4.20;61.22;99153.07;1741126;81;21088;-54
2022/02/06 11:15:33;;;;;;;2.80;0.80;;;;;;;4.19;61.33;99150.87;1744419;81;21042;-52
2022/02/06 11:18:16;;;;;;;6.23;0.80;;;;;;;4.18;61.45;99156.23;1737852;81;21136;-52
2022/02/06 11:21:04;;;;;;;3.10;0.93;;;;;;;4.17;61.47;99153.16;1741545;81;21239;-53
2022/02/06 11:23:47;;;;;;;2.97;0.83;;;;;;;4.14;61.54;99145.28;1738980;81;21045;-52
2022/02/06 11:26:23;;;;;;;5.13;1.00;;;;;;;4.14;61.63;99146.16;1740522;81;21089;-53
2022/02/06 11:28:52;;;;;;;3.43;1.00;;;;;;;4.13;61.70;99137.75;1741544;81;21561;-52
2022/02/06 11:31:18;;;;;;;3.13;0.80;;;;;;;4.10;61.80;99135.17;1742685;81;21064;-53
2022/02/06 11:45:19;;;;;;;4.67;1.20;;;;;;;4.04;62.30;99131.39;1805997;78;20989;-53
2022/02/06 11:47:50;;;;;;;4.70;1.00;;;;;;;4.08;62.26;99123.69;1771031;78;21374;-52
2022/02/06 11:52:09;;;;;;;3.67;1.30;;;;;;;4.15;62.15;99111.08;1828108;75;22535;-54
2022/02/06 11:54:52;;;;;;;1.80;1.00;;;;;;;4.12;62.08;99111.16;1772389;78;21025;-54
2022/02/06 11:57:25;;;;;;;4.93;1.07;;;;;;;4.15;62.08;99117.73;1712349;81;21214;-54
2022/02/06 12:00:09;;;;;;;7.27;1.10;;;;;;;4.16;61.87;99116.81;1711001;81;20930;-54
2022/02/06 12:02:47;;;;;;;3.50;0.80;;;;;;;4.18;61.85;99118.95;1715378;81;20962;-54
2022/02/06 12:05:28;;;;;;;4.10;1.13;;;;;;;4.20;61.62;99109.13;1714159;81;20918;-54
2022/02/06 12:08:07;;;;;;;5.33;1.00;;;;;;;4.20;61.59;99106.45;1716719;81;21776;-54
2022/02/06 12:10:53;;;;;;;2.33;0.90;;;;;;;4.22;61.50;99107.28;1729418;80;21827;-54
2022/02/06 12:13:32;;;;;;;2.70;1.12;;;;;;;4.27;61.42;99100.45;1707274;82;20942;-54
2022/02/06 12:16:04;;;;;;;3.70;1.03;;;;;;;4.28;61.32;99101.74;1738970;80;21318;-54
2022/02/06 12:18:36;;;;;;;4.03;1.20;;;;;;;4.32;61.13;99090.54;1731631;81;20925;-54
2022/02/06 12:21:21;;;;;;;7.27;1.13;;;;;;;4.34;60.84;99098.02;1722120;80;20930;-54
2022/02/06 12:23:57;;;;;;;2.08;0.88;;;;;;;4.32;60.77;99104.73;1726221;81;21169;-54
2022/02/06 12:26:32;;;;;;;2.07;0.80;;;;;;;4.30;60.74;99102.57;1723784;80;21056;-54
2022/02/06 12:29:14;;;;;;;3.03;0.97;;;;;;;4.26;60.67;99106.24;1723683;81;21546;-54
2022/02/06 12:31:56;;;;;;;3.67;1.37;;;;;;;4.20;60.73;99101.13;1719223;81;21521;-56
2022/02/06 12:37:28;;;;;;;4.20;1.20;;;;;;;4.12;60.99;99097.84;1721685;81;21142;-54
2022/02/06 12:39:57;;;;;;;1.90;0.90;;;;;;;4.03;61.16;99095.02;1722450;82;22641;-54
2022/02/06 12:42:33;;;;;;;2.07;1.00;;;;;;;3.99;61.30;99089.40;1724581;80;20965;-53
2022/02/06 12:45:01;;;;;;;1.97;1.00;;;;;;;3.97;61.37;99095.69;1720168;81;21468;-54
2022/02/06 12:47:29;;;;;;;4.37;1.27;;;;;;;3.88;61.44;99092.85;1718133;81;21104;-52
2022/02/06 12:49:56;;;;;;;8.10;1.17;;;;;;;3.83;61.63;99096.10;1718105;81;21961;-53
2022/02/06 12:52:22;;;;;;;2.30;1.00;;;;;;;3.80;61.79;99090.89;1718004;81;21022;-53
2022/02/06 12:54:51;;;;;;;3.57;0.90;;;;;;;3.79;61.96;99089.15;1720229;81;20988;-53
2022/02/06 12:57:20;;;;;;;5.00;1.10;;;;;;;3.79;62.01;99094.02;1720393;81;21190;-53
2022/02/06 12:59:46;;;;;;;5.07;0.90;;;;;;;3.77;61.97;99094.52;1720896;81;21009;-53
2022/02/06 13:02:14;;;;;;;4.67;0.90;;;;;;;3.75;61.93;99092.35;1719642;81;21410;-54
2022/02/06 13:04:43;;;;;;;4.30;0.90;;;;;;;3.73;61.99;99090.22;1715898;81;21077;-53
2022/02/06 13:07:11;;;;;;;2.50;0.97;;;;;;;3.73;62.09;99086.23;1714521;81;20913;-54
2022/02/06 13:09:44;;;;;;;3.07;0.90;;;;;;;3.72;62.02;99086.27;1724049;81;21400;-53
2022/02/06 13:12:31;;;;;;;4.23;1.10;;;;;;;3.70;62.11;99084.98;1716917;81;21322;-54
2022/02/06 13:22:47;;;;;;;3.83;0.90;;;;;;;3.66;62.45;99089.97;1743897;80;21392;-56
2022/02/06 13:30:33;;;;;;;3.53;0.90;;;;;;;3.63;62.31;99075.91;1690320;80;21133;-56
2022/02/06 13:35:40;;;;;;;2.07;0.80;;;;;;;3.60;62.45;99074.20;1740735;80;21120;-56
2022/02/06 13:38:11;;;;;;;4.77;0.80;;;;;;;3.62;62.32;99072.83;1735154;80;21088;-56
2022/02/06 13:40:49;;;;;;;4.13;0.80;;;;;;;3.62;62.24;99075.49;1738070;80;21106;-56
2022/02/06 13:43:18;;;;;;;2.13;0.90;;;;;;;3.60;61.98;99066.22;1720156;81;21072;-56
2022/02/06 13:45:42;;;;;;;3.80;0.73;;;;;;;3.60;62.10;99064.89;1721997;81;21685;-56
2022/02/06 13:48:10;;;;;;;3.60;0.70;;;;;;;3.62;61.94;99064.84;1723319;81;21458;-57
2022/02/06 13:50:43;;;;;;;4.60;1.20;;;;;;;3.60;61.72;99056.03;1724268;81;20983;-57
2022/02/06 13:53:13;;;;;;;1.83;0.70;;;;;;;3.57;61.46;99066.34;1727784;81;21124;-56
2022/02/06 13:55:56;;;;;;;3.13;0.63;;;;;;;3.57;61.34;99065.46;1732547;81;20891;-56
2022/02/06 13:58:26;;;;;;;2.83;0.70;;;;;;;3.54;61.28;99062.89;1744974;80;20907;-56
2022/02/06 14:01:08;;;;;;;2.33;0.73;;;;;;;3.52;61.06;99063.38;1718382;81;21064;-54
2022/02/06 14:03:50;;;;;;;1.50;0.70;;;;;;;3.48;60.91;99061.75;1719117;81;21315;-56
2022/02/06 14:06:25;;;;;;;3.73;1.20;;;;;;;3.41;61.00;99067.23;1741271;80;21113;-55
2022/02/06 14:09:00;;;;;;;3.23;0.60;;;;;;;3.35;61.06;99062.11;1745757;80;20949;-54
2022/02/06 14:11:31;;;;;;;1.77;0.70;;;;;;;3.32;61.12;99058.66;1748416;80;20989;-54